Time;durP1;ratioP1;P1;durP2;ratioP2;P2;SDS_P1;SDS_P2;PMS_P1;PMS_P2;Temp;Humidity;BMP_temperature;BMP_pressure;BME280_temperature;BME280_humidity;BME280_pressure;Samples;Min_cycle;Max_cycle;Signal;HPM_P1;HPM_P2
2021/04/02 00:00:00;;;;;;;;;;;;;;;21.99;24.65;97688.94;5044371;28;1910;-79
2021/04/02 00:02:25;;;;;;;;;;;;;;;21.85;24.51;97685.31;5045254;28;1343;-79
2021/04/02 00:04:51;;;;;;;;;;;;;;;21.97;24.43;97680.91;5025986;28;1357;-79
2021/04/02 00:07:16;;;;;;;;;;;;;;;21.72;25.06;97676.06;5045047;28;1096;-79
2021/04/02 00:09:42;;;;;;;;;;;;;;;21.73;24.96;97677.63;5044275;28;889;-79
2021/04/02 00:12:08;;;;;;;;;;;;;;;21.77;25.21;97671.88;5044414;28;828;-79
2021/04/02 00:14:33;;;;;;;;;;;;;;;21.73;25.23;97677.63;5044271;28;1403;-79
2021/04/02 00:16:58;;;;;;;;;;;;;;;21.65;25.13;97664.94;5044644;28;649;-79
2021/04/02 00:19:24;;;;;;;;;;;;;;;22.17;24.55;97671.38;5044562;28;1906;-79
2021/04/02 00:21:49;;;;;;;;;;;;;;;22.30;24.32;97664.44;5044024;28;852;-79
2021/04/02 00:24:15;;;;;;;;;;;;;;;22.44;24.04;97656.69;5043367;28;1371;-79
2021/04/02 00:26:42;;;;;;;;;;;;;;;22.00;24.40;97667.88;5044832;28;844;-79
2021/04/02 00:29:08;;;;;;;;;;;;;;;22.07;24.55;97656.28;5043795;28;623;-79
2021/04/02 00:31:33;;;;;;;;;;;;;;;21.91;24.90;97659.25;5044488;28;982;-79
2021/04/02 00:34:00;;;;;;;;;;;;;;;21.93;24.59;97662.44;5026436;28;1455;-79
2021/04/02 00:36:25;;;;;;;;;;;;;;;21.84;24.95;97649.75;5044425;28;968;-79
2021/04/02 00:38:51;;;;;;;;;;;;;;;21.88;24.72;97648.84;5043299;28;1910;-79
2021/04/02 00:41:17;;;;;;;;;;;;;;;21.66;25.12;97646.72;5044345;28;877;-79
2021/04/02 00:43:43;;;;;;;;;;;;;;;21.73;25.27;97637.22;5043786;28;726;-79
2021/04/02 00:46:09;;;;;;;;;;;;;;;21.68;25.19;97632.91;5043790;28;1384;-79
2021/04/02 00:48:36;;;;;;;;;;;;;;;22.20;24.56;97637.25;5042396;28;1347;-79
2021/04/02 00:51:03;;;;;;;;;;;;;;;22.47;24.23;97633.06;5043904;28;956;-79
2021/04/02 00:53:29;;;;;;;;;;;;;;;22.52;24.01;97629.66;5042405;28;923;-79
2021/04/02 00:55:56;;;;;;;;;;;;;;;22.15;24.52;97628.53;5043361;28;1442;-79
2021/04/02 00:58:22;;;;;;;;;;;;;;;22.03;24.57;97630.13;5043124;28;1910;-79
2021/04/02 01:00:47;;;;;;;;;;;;;;;21.85;24.95;97627.88;5043542;28;675;-79
2021/04/02 01:03:13;;;;;;;;;;;;;;;21.79;24.96;97624.06;5042635;28;1396;-79
2021/04/02 01:05:42;;;;;;;;;;;;;;;21.78;24.97;97620.44;5043602;28;1292;-79
2021/04/02 01:08:09;;;;;;;;;;;;;;;21.69;25.17;97619.53;5042485;28;864;-79
2021/04/02 01:10:34;;;;;;;;;;;;;;;21.79;24.97;97613.50;5043503;28;849;-79
2021/04/02 01:13:04;;;;;;;;;;;;;;;21.87;24.84;97613.28;5043161;28;1367;-80
2021/04/02 01:15:38;;;;;;;;;;;;;;;21.68;25.00;97607.41;5042931;28;1385;-79
2021/04/02 01:18:05;;;;;;;;;;;;;;;21.80;24.97;97603.75;5042529;28;681;-79
2021/04/02 01:20:31;;;;;;;;;;;;;;;21.75;25.16;97603.56;5042446;28;955;-79
2021/04/02 01:22:57;;;;;;;;;;;;;;;21.67;25.28;97605.06;5042119;28;866;-79
2021/04/02 01:25:28;;;;;;;;;;;;;;;22.02;24.55;97603.03;5026198;28;1352;-79
2021/04/02 01:28:00;;;;;;;;;;;;;;;22.34;24.32;97597.06;5043208;28;646;-79
2021/04/02 01:30:25;;;;;;;;;;;;;;;22.40;24.04;97600.09;5043224;28;958;-80
2021/04/02 01:32:51;;;;;;;;;;;;;;;22.11;24.37;97586.16;5026257;28;1356;-79
2021/04/02 01:35:48;;;;;;;;;;;;;;;22.04;24.54;97584.34;5041423;28;1293;-79
2021/04/02 01:38:16;;;;;;;;;;;;;;;21.96;24.79;97583.00;5033608;28;1910;-79
2021/04/02 01:40:45;;;;;;;;;;;;;;;22.01;24.73;97578.78;5026496;28;1243;-79
2021/04/02 01:43:13;;;;;;;;;;;;;;;22.38;24.16;97587.63;5026082;28;1139;-79
2021/04/02 01:45:39;;;;;;;;;;;;;;;22.42;23.91;97580.59;5042672;28;1414;-79
2021/04/02 01:48:05;;;;;;;;;;;;;;;22.08;24.68;97575.72;5042038;28;611;-78
2021/04/02 01:50:32;;;;;;;;;;;;;;;21.93;24.53;97571.81;5041661;28;1395;-79
2021/04/02 01:52:58;;;;;;;;;;;;;;;21.79;24.95;97576.69;5025292;28;1140;-79
2021/04/02 01:55:23;;;;;;;;;;;;;;;21.91;24.90;97580.75;5042154;28;830;-79
2021/04/02 01:57:51;;;;;;;;;;;;;;;21.71;24.93;97578.19;5041829;28;1253;-80
2021/04/02 02:00:23;;;;;;;;;;;;;;;21.79;24.87;97571.03;5026291;28;1990;-79
2021/04/02 02:02:52;;;;;;;;;;;;;;;21.76;24.99;97568.31;5026037;28;1234;-79
2021/04/02 02:05:18;;;;;;;;;;;;;;;21.75;25.25;97567.53;5025717;28;1213;-79
2021/04/02 02:07:45;;;;;;;;;;;;;;;22.26;24.38;97567.38;5025488;28;1203;-79
2021/04/02 02:10:13;;;;;;;;;;;;;;;22.50;23.80;97564.13;5009658;28;1352;-79
2021/04/02 02:12:39;;;;;;;;;;;;;;;22.26;24.02;97561.72;5042882;28;1323;-79
2021/04/02 02:15:16;;;;;;;;;;;;;;;22.12;24.17;97550.88;5027026;28;1206;-79
2021/04/02 02:17:48;;;;;;;;;;;;;;;21.95;24.62;97557.97;5042347;28;651;-79
2021/04/02 02:20:14;;;;;;;;;;;;;;;21.89;24.80;97549.25;5008784;28;1906;-79
2021/04/02 02:22:41;;;;;;;;;;;;;;;21.80;24.91;97558.44;5041294;28;1222;-79
2021/04/02 02:25:11;;;;;;;;;;;;;;;21.81;24.94;97543.06;5041600;28;1203;-79
2021/04/02 02:27:41;;;;;;;;;;;;;;;21.84;24.72;97542.13;5042208;28;1206;-79
2021/04/02 02:30:08;;;;;;;;;;;;;;;21.87;24.85;97550.97;5041768;28;1120;-79
2021/04/02 02:32:34;;;;;;;;;;;;;;;21.71;25.05;97544.22;5022707;28;1909;-79
2021/04/02 02:35:00;;;;;;;;;;;;;;;21.94;24.78;97542.22;5022056;28;845;-79
2021/04/02 02:37:26;;;;;;;;;;;;;;;21.67;25.27;97537.88;5022266;28;1226;-79
2021/04/02 02:39:52;;;;;;;;;;;;;;;21.69;24.99;97535.38;5046933;28;1983;-79
2021/04/02 02:42:18;;;;;;;;;;;;;;;21.84;24.72;97530.81;5055643;28;658;-79
2021/04/02 02:44:45;;;;;;;;;;;;;;;21.79;25.15;97534.22;5037926;28;1361;-79
2021/04/02 02:47:11;;;;;;;;;;;;;;;21.86;24.65;97533.16;5056933;28;1265;-79
2021/04/02 02:49:44;;;;;;;;;;;;;;;21.65;25.06;97534.69;5055699;28;1364;-78
2021/04/02 02:52:11;;;;;;;;;;;;;;;22.04;24.68;97522.00;5042083;28;1171;-79
2021/04/02 02:54:36;;;;;;;;;;;;;;;22.25;24.08;97520.47;5042011;28;1142;-79
2021/04/02 02:57:03;;;;;;;;;;;;;;;22.50;24.24;97530.88;5059083;28;678;-79
2021/04/02 02:59:29;;;;;;;;;;;;;;;22.38;24.03;97534.56;5043331;28;1882;-79
2021/04/02 03:01:57;;;;;;;;;;;;;;;22.06;24.41;97515.88;5046421;28;678;-79
2021/04/02 03:04:26;;;;;;;;;;;;;;;21.75;24.85;97519.38;5044502;28;943;-79
2021/04/02 03:06:54;;;;;;;;;;;;;;;21.92;24.60;97530.56;5045388;28;1192;-79
2021/04/02 03:09:21;;;;;;;;;;;;;;;21.73;24.95;97521.88;5045235;28;955;-79
2021/04/02 03:11:46;;;;;;;;;;;;;;;21.89;24.71;97525.81;5045268;28;1774;-77
2021/04/02 03:14:14;;;;;;;;;;;;;;;21.88;24.91;97518.56;5044858;28;1518;-79
2021/04/02 03:16:44;;;;;;;;;;;;;;;21.70;24.86;97514.31;5044794;28;1364;-79
2021/04/02 03:19:11;;;;;;;;;;;;;;;21.73;24.91;97521.88;5027958;28;1969;-79
2021/04/02 03:21:36;;;;;;;;;;;;;;;21.76;25.06;97517.34;5028513;28;1147;-79
2021/04/02 03:24:13;;;;;;;;;;;;;;;21.67;24.94;97515.22;5043484;28;1178;-77
2021/04/02 03:26:41;;;;;;;;;;;;;;;21.71;25.07;97515.09;5027939;28;1268;-77
2021/04/02 03:29:07;;;;;;;;;;;;;;;22.25;24.34;97514.81;5043876;28;614;-77
2021/04/02 03:31:34;;;;;;;;;;;;;;;22.48;24.05;97516.34;5044912;28;982;-77
2021/04/02 03:34:00;;;;;;;;;;;;;;;22.40;24.13;97508.59;5026813;28;1203;-77
2021/04/02 03:36:28;;;;;;;;;;;;;;;22.07;24.39;97508.94;5043497;28;808;-78
2021/04/02 03:39:03;;;;;;;;;;;;;;;21.93;24.44;97503.81;5042989;28;1982;-77
2021/04/02 03:41:34;;;;;;;;;;;;;;;21.96;24.52;97511.38;5043780;28;1249;-77
2021/04/02 03:44:04;;;;;;;;;;;;;;;21.86;25.00;97510.50;5027320;28;1214;-77
2021/04/02 03:46:30;;;;;;;;;;;;;;;21.83;25.01;97512.22;5043439;28;654;-77
2021/04/02 03:48:59;;;;;;;;;;;;;;;21.83;24.95;97506.56;5026808;28;1349;-77
2021/04/02 03:51:27;;;;;;;;;;;;;;;21.76;25.10;97506.84;5026936;28;1140;-77
2021/04/02 03:53:59;;;;;;;;;;;;;;;21.71;25.10;97510.25;5027121;28;1156;-77
2021/04/02 03:56:30;;;;;;;;;;;;;;;21.64;25.20;97516.13;5043402;28;1427;-78
2021/04/02 03:58:56;;;;;;;;;;;;;;;21.88;25.06;97510.06;5042614;28;1902;-78
2021/04/02 04:01:27;;;;;;;;;;;;;;;22.21;24.18;97508.47;5028296;28;1299;-79
2021/04/02 04:03:55;;;;;;;;;;;;;;;22.40;24.19;97514.28;5026754;28;1258;-79
2021/04/02 04:06:22;;;;;;;;;;;;;;;22.52;24.02;97505.69;5027417;28;1151;-78
2021/04/02 04:08:52;;;;;;;;;;;;;;;22.19;24.22;97501.69;5027066;28;1348;-79
2021/04/02 04:11:18;;;;;;;;;;;;;;;21.89;24.98;97503.16;5028074;28;1276;-78
2021/04/02 04:13:44;;;;;;;;;;;;;;;21.92;24.69;97505.88;5026187;28;1194;-78
2021/04/02 04:16:11;;;;;;;;;;;;;;;21.85;25.02;97501.22;5043523;28;723;-78
2021/04/02 04:18:37;;;;;;;;;;;;;;;21.92;24.98;97496.59;5042382;28;1975;-78
2021/04/02 04:21:04;;;;;;;;;;;;;;;21.88;24.94;97490.25;5027823;28;1248;-79
2021/04/02 04:23:54;;;;;;;;;;;;;;;21.73;24.95;97496.41;5042906;28;762;-79
2021/04/02 04:26:19;;;;;;;;;;;;;;;21.77;25.30;97494.25;5044270;28;702;-78
2021/04/02 04:28:45;;;;;;;;;;;;;;;22.12;24.59;97505.56;5043472;28;758;-79
2021/04/02 04:31:11;;;;;;;;;;;;;;;22.46;23.99;97506.75;5043715;28;943;-79
2021/04/02 04:33:36;;;;;;;;;;;;;;;22.29;24.18;97498.47;5043005;28;932;-79
2021/04/02 04:36:03;;;;;;;;;;;;;;;22.07;24.49;97503.28;5043477;28;1050;-77
2021/04/02 04:38:29;;;;;;;;;;;;;;;21.88;24.77;97498.75;5041557;28;1910;-78
2021/04/02 04:40:54;;;;;;;;;;;;;;;21.79;24.77;97500.22;5042479;28;1166;-76
2021/04/02 04:43:20;;;;;;;;;;;;;;;21.60;25.42;97495.63;5041335;28;1143;-77
2021/04/02 04:45:45;;;;;;;;;;;;;;;21.85;25.08;97492.72;5041672;28;1159;-78
2021/04/02 04:48:10;;;;;;;;;;;;;;;21.81;25.20;97492.09;5036280;28;1297;-77
2021/04/02 04:50:36;;;;;;;;;;;;;;;21.85;25.08;97492.72;5042719;28;1304;-77
2021/04/02 04:53:03;;;;;;;;;;;;;;;21.63;25.16;97496.78;5029510;28;1177;-78
2021/04/02 04:55:29;;;;;;;;;;;;;;;21.75;25.12;97487.44;5041581;28;1236;-76
2021/04/02 04:57:55;;;;;;;;;;;;;;;21.97;24.75;97498.81;5042043;28;1344;-78
2021/04/02 05:00:21;;;;;;;;;;;;;;;22.32;24.11;97497.53;5031556;28;1906;-77
2021/04/02 05:02:47;;;;;;;;;;;;;;;22.49;24.27;97503.00;5040360;28;1202;-77
2021/04/02 05:05:15;;;;;;;;;;;;;;;22.16;24.30;97494.09;5038253;28;1281;-78
2021/04/02 05:07:40;;;;;;;;;;;;;;;22.00;24.68;97498.69;5041241;28;1143;-77
2021/04/02 05:10:06;;;;;;;;;;;;;;;21.99;24.76;97493.47;5032985;28;1040;-77
2021/04/02 05:12:32;;;;;;;;;;;;;;;21.92;24.91;97496.59;5042490;28;1174;-78
2021/04/02 05:14:57;;;;;;;;;;;;;;;21.70;25.07;97497.31;5040853;28;1138;-77
2021/04/02 05:17:22;;;;;;;;;;;;;;;21.66;25.32;97490.19;5025179;28;1243;-76
2021/04/02 05:19:48;;;;;;;;;;;;;;;21.74;24.96;97483.81;5041501;28;1899;-78
2021/04/02 05:22:14;;;;;;;;;;;;;;;21.61;25.49;97483.09;5043303;28;647;-78
2021/04/02 05:24:39;;;;;;;;;;;;;;;21.67;25.00;97498.25;5041857;28;1205;-79
2021/04/02 05:27:05;;;;;;;;;;;;;;;21.75;25.22;97493.91;5042923;28;1157;-78
2021/04/02 05:29:31;;;;;;;;;;;;;;;22.18;24.69;97485.94;5041412;28;1071;-77
2021/04/02 05:31:56;;;;;;;;;;;;;;;22.40;24.28;97491.59;5022527;28;1139;-77
2021/04/02 05:34:21;;;;;;;;;;;;;;;22.49;23.80;97500.16;5022114;28;850;-78
2021/04/02 05:36:47;;;;;;;;;;;;;;;22.07;24.78;97487.09;5032713;28;1067;-78
2021/04/02 05:39:13;;;;;;;;;;;;;;;21.71;25.23;97490.41;5041335;28;1910;-78
2021/04/02 05:41:42;;;;;;;;;;;;;;;21.97;24.77;97481.81;5040688;28;1091;-78
2021/04/02 05:44:10;;;;;;;;;;;;;;;21.98;24.91;97489.06;5035638;28;1114;-76
2021/04/02 05:46:36;;;;;;;;;;;;;;;21.91;24.92;97483.66;5042318;28;828;-78
2021/04/02 05:49:03;;;;;;;;;;;;;;;21.69;25.26;97486.44;5041772;28;1034;-78
2021/04/02 05:51:28;;;;;;;;;;;;;;;21.46;25.46;97479.97;5042235;28;708;-79
2021/04/02 05:53:55;;;;;;;;;;;;;;;21.82;25.09;97482.34;5040696;28;786;-76
2021/04/02 05:56:20;;;;;;;;;;;;;;;21.70;25.11;97473.88;5042578;28;666;-78
2021/04/02 05:58:46;;;;;;;;;;;;;;;22.13;24.50;97473.16;5039990;28;1898;-79
2021/04/02 06:01:11;;;;;;;;;;;;;;;22.51;23.93;97475.75;5042032;28;945;-79
2021/04/02 06:03:37;;;;;;;;;;;;;;;22.53;23.88;97472.44;5041184;28;869;-79
2021/04/02 06:06:02;;;;;;;;;;;;;;;22.26;24.26;97468.19;5042777;28;706;-79
2021/04/02 06:08:28;;;;;;;;;;;;;;;22.10;24.45;97474.84;5024887;28;1135;-78
2021/04/02 06:10:57;;;;;;;;;;;;;;;21.97;24.71;97465.63;5042011;28;635;-78
2021/04/02 06:13:23;;;;;;;;;;;;;;;21.86;25.04;97465.19;5041062;28;952;-78
2021/04/02 06:15:48;;;;;;;;;;;;;;;21.85;24.79;97464.41;5040923;28;970;-78
2021/04/02 06:18:14;;;;;;;;;;;;;;;21.77;25.24;97462.31;5041729;28;920;-78
2021/04/02 06:20:46;;;;;;;;;;;;;;;21.85;25.09;97458.75;5043168;28;1906;-77
2021/04/02 06:23:12;;;;;;;;;;;;;;;22.14;24.50;97463.41;5045064;28;602;-77
2021/04/02 06:25:39;;;;;;;;;;;;;;;22.42;24.02;97455.84;5046368;28;638;-79
2021/04/02 06:28:11;;;;;;;;;;;;;;;22.28;24.29;97459.25;5044828;28;1071;-77
2021/04/02 06:30:37;;;;;;;;;;;;;;;22.03;24.71;97451.66;5044449;28;1335;-78
2021/04/02 06:33:02;;;;;;;;;;;;;;;21.78;24.91;97458.22;5044521;28;1084;-77
2021/04/02 06:35:28;;;;;;;;;;;;;;;21.91;24.92;97458.16;5046063;28;650;-76
2021/04/02 06:37:54;;;;;;;;;;;;;;;22.00;24.66;97446.91;5044694;28;797;-76
2021/04/02 06:40:20;;;;;;;;;;;;;;;21.81;24.95;97449.59;5045605;28;1973;-78
2021/04/02 06:42:46;;;;;;;;;;;;;;;21.85;25.03;97457.94;5045413;28;928;-76
2021/04/02 06:45:12;;;;;;;;;;;;;;;21.82;25.03;97456.84;5044462;28;856;-77
2021/04/02 06:47:38;;;;;;;;;;;;;;;21.62;25.45;97450.69;5045846;28;853;-77
2021/04/02 06:50:16;;;;;;;;;;;;;;;21.84;25.01;97451.50;5044763;28;833;-77
2021/04/02 06:52:41;;;;;;;;;;;;;;;22.28;24.54;97445.09;5045397;28;733;-78
2021/04/02 06:55:08;;;;;;;;;;;;;;;22.45;24.07;97448.47;5044173;28;863;-78
2021/04/02 06:57:34;;;;;;;;;;;;;;;22.21;24.42;97445.34;5044244;28;927;-77
2021/04/02 06:59:59;;;;;;;;;;;;;;;22.01;24.80;97448.47;5043614;28;1902;-77
2021/04/02 07:02:25;;;;;;;;;;;;;;;21.91;24.87;97449.66;5045870;28;947;-78
2021/04/02 07:04:51;;;;;;;;;;;;;;;21.81;24.92;97449.59;5045076;28;714;-76
2021/04/02 07:07:17;;;;;;;;;;;;;;;21.68;25.33;97443.19;5044735;28;837;-78
2021/04/02 07:09:42;;;;;;;;;;;;;;;21.66;25.46;97440.03;5044382;28;673;-79
2021/04/02 07:12:09;;;;;;;;;;;;;;;21.67;25.28;97435.94;5044638;28;975;-76
2021/04/02 07:14:34;;;;;;;;;;;;;;;21.68;24.97;97434.69;5043704;28;1112;-76
2021/04/02 07:17:00;;;;;;;;;;;;;;;21.83;24.95;97438.59;5044108;28;835;-76
2021/04/02 07:19:26;;;;;;;;;;;;;;;21.70;25.31;97429.34;5044593;28;1902;-77
2021/04/02 07:21:52;;;;;;;;;;;;;;;22.01;25.00;97431.47;5045565;28;606;-76
2021/04/02 07:24:18;;;;;;;;;;;;;;;22.46;24.39;97433.03;5043276;28;1071;-76
2021/04/02 07:26:44;;;;;;;;;;;;;;;22.44;24.36;97433.53;5035275;28;1159;-78
2021/04/02 07:29:10;;;;;;;;;;;;;;;22.04;24.53;97436.22;5042245;28;1202;-77
2021/04/02 07:31:35;;;;;;;;;;;;;;;21.80;24.98;97433.06;5044239;28;1198;-76
2021/04/02 07:34:01;;;;;;;;;;;;;;;21.84;24.92;97434.50;5043167;28;631;-75
2021/04/02 07:36:27;;;;;;;;;;;;;;;21.66;25.21;97440.03;5044642;28;930;-78
2021/04/02 07:38:53;;;;;;;;;;;;;;;21.95;25.08;97436.94;5044349;28;1919;-76
2021/04/02 07:41:18;;;;;;;;;;;;;;;22.24;24.40;97438.75;5045499;28;894;-78
2021/04/02 07:43:52;;;;;;;;;;;;;;;22.35;24.25;97439.91;5042805;28;1173;-73
2021/04/02 07:46:20;;;;;;;;;;;;;;;22.12;24.73;97437.56;5047254;28;959;-80
2021/04/02 07:49:05;;;;;;;;;;;;;;;22.43;24.13;97433.97;5014299;28;1139;-85
2021/04/02 07:51:41;;;;;;;;;;;;;;;21.97;25.09;97442.16;5031907;28;1245;-87
2021/04/02 07:54:26;;;;;;;;;;;;;;;22.19;24.96;97442.19;5051037;28;630;-87
2021/04/02 07:56:56;;;;;;;;;;;;;;;21.98;25.17;97443.75;5048172;28;977;-85
2021/04/02 07:59:37;;;;;;;;;;;;;;;22.49;24.41;97432.91;5025992;28;1963;-80
2021/04/02 08:02:04;;;;;;;;;;;;;;;22.23;24.93;97434.34;5011905;28;1214;-78
2021/04/02 08:04:36;;;;;;;;;;;;;;;22.62;24.36;97425.09;5043149;28;591;-78
2021/04/02 08:07:01;;;;;;;;;;;;;;;22.29;24.74;97430.44;5045269;28;742;-78
2021/04/02 08:09:26;;;;;;;;;;;;;;;22.21;25.36;97434.78;5044280;28;738;-80
2021/04/02 08:11:55;;;;;;;;;;;;;;;22.73;24.39;97430.31;5044210;28;988;-78
2021/04/02 08:14:33;;;;;;;;;;;;;;;22.76;24.38;97429.41;5044312;28;886;-81
2021/04/02 08:16:59;;;;;;;;;;;;;;;22.64;24.74;97424.63;5046290;28;1001;-81
2021/04/02 08:19:25;;;;;;;;;;;;;;;22.48;24.74;97424.84;5044987;28;1906;-80
2021/04/02 08:21:50;;;;;;;;;;;;;;;22.23;25.21;97426.63;5044362;28;595;-80
2021/04/02 08:24:17;;;;;;;;;;;;;;;22.59;24.88;97413.91;5045205;28;749;-80
2021/04/02 08:26:42;;;;;;;;;;;;;;;22.34;25.13;97421.34;5044180;28;908;-79
2021/04/02 08:29:10;;;;;;;;;;;;;;;22.61;24.89;97414.22;5044053;28;999;-79
2021/04/02 08:31:38;;;;;;;;;;;;;;;22.60;24.83;97415.47;5045402;28;989;-79
2021/04/02 08:34:04;;;;;;;;;;;;;;;22.60;24.88;97415.47;5045727;28;698;-82
2021/04/02 08:36:29;;;;;;;;;;;;;;;22.28;25.31;97411.84;5047024;28;626;-81
2021/04/02 08:38:55;;;;;;;;;;;;;;;22.53;25.05;97408.03;5045689;28;1967;-82
2021/04/02 08:41:25;;;;;;;;;;;;;;;22.28;25.42;97409.03;5044986;28;838;-80
2021/04/02 08:43:52;;;;;;;;;;;;;;;22.51;25.37;97401.25;5043810;28;932;-77
2021/04/02 08:46:18;;;;;;;;;;;;;;;22.97;24.55;97404.28;5043888;28;856;-80
2021/04/02 08:48:44;;;;;;;;;;;;;;;22.80;24.82;97396.03;5043262;28;637;-76
2021/04/02 08:51:17;;;;;;;;;;;;;;;23.02;24.65;97395.16;5043392;28;675;-78
2021/04/02 08:53:42;;;;;;;;;;;;;;;23.11;24.48;97398.03;5042994;28;773;-78
2021/04/02 08:56:08;;;;;;;;;;;;;;;22.56;25.34;97397.81;5043332;28;919;-78
2021/04/02 08:58:33;;;;;;;;;;;;;;;22.51;25.32;97401.25;5042078;28;1874;-84
2021/04/02 09:00:59;;;;;;;;;;;;;;;22.40;25.74;97390.34;5049119;28;1028;-87
2021/04/02 09:03:24;;;;;;;;;;;;;;;22.23;25.89;97392.63;5010790;28;723;-82
2021/04/02 09:05:50;;;;;;;;;;;;;;;22.67;25.38;97395.34;5026463;28;1324;-77
2021/04/02 09:08:15;;;;;;;;;;;;;;;22.35;26.10;97393.78;5041725;28;588;-77
2021/04/02 09:10:41;;;;;;;;;;;;;;;22.16;26.38;97390.06;5042161;28;1216;-77
2021/04/02 09:13:06;;;;;;;;;;;;;;;22.12;26.18;97389.38;5042043;28;915;-77
2021/04/02 09:15:32;;;;;;;;;;;;;;;21.94;26.36;97392.09;5042965;28;936;-76
2021/04/02 09:18:13;;;;;;;;;;;;;;;22.09;26.24;97387.47;5042550;28;690;-77
2021/04/02 09:20:39;;;;;;;;;;;;;;;22.04;26.10;97390.91;5043012;28;1985;-77
2021/04/02 09:23:04;;;;;;;;;;;;;;;21.85;26.55;97387.16;5042398;28;667;-77
2021/04/02 09:25:29;;;;;;;;;;;;;;;21.93;26.24;97373.53;5042193;28;923;-77
2021/04/02 09:28:03;;;;;;;;;;;;;;;21.93;26.38;97359.38;5041649;28;941;-76
2021/04/02 09:30:29;;;;;;;;;;;;;;;21.98;26.12;97370.88;5040707;28;974;-74
2021/04/02 09:32:55;;;;;;;;;;;;;;;21.93;26.27;97368.66;5040054;28;643;-75
2021/04/02 09:35:21;;;;;;;;;;;;;;;21.89;26.13;97361.53;5040206;28;671;-76
2021/04/02 09:37:46;;;;;;;;;;;;;;;21.85;26.42;97353.94;5040556;28;925;-76
2021/04/02 09:40:12;;;;;;;;;;;;;;;21.76;26.56;97347.44;5040311;28;1914;-75
2021/04/02 09:42:38;;;;;;;;;;;;;;;21.72;26.51;97346.81;5040846;28;1103;-74
2021/04/02 09:45:04;;;;;;;;;;;;;;;21.76;26.29;97348.25;5040872;28;670;-77
2021/04/02 09:47:29;;;;;;;;;;;;;;;21.69;26.47;97334.34;5045183;28;932;-75
2021/04/02 09:49:55;;;;;;;;;;;;;;;21.62;26.61;97331.78;5060706;28;618;-77
2021/04/02 09:52:20;;;;;;;;;;;;;;;21.73;26.40;97326.50;5061336;28;939;-77
2021/04/02 09:54:46;;;;;;;;;;;;;;;21.77;26.16;97327.16;5060533;28;957;-77
2021/04/02 09:57:12;;;;;;;;;;;;;;;21.83;26.16;97339.47;5061470;28;995;-77
2021/04/02 09:59:37;;;;;;;;;;;;;;;22.16;25.68;97341.09;5061177;28;1948;-76
2021/04/02 10:02:03;;;;;;;;;;;;;;;22.49;25.31;97330.06;5061947;28;698;-76
2021/04/02 10:04:29;;;;;;;;;;;;;;;22.33;25.21;97329.06;5061075;28;637;-75
2021/04/02 10:06:54;;;;;;;;;;;;;;;21.90;25.93;97323.47;5061297;28;987;-76
2021/04/02 10:09:20;;;;;;;;;;;;;;;21.81;26.30;97327.84;5060923;28;943;-76
2021/04/02 10:11:45;;;;;;;;;;;;;;;21.66;26.41;97318.28;5061311;28;891;-76
2021/04/02 10:14:14;;;;;;;;;;;;;;;21.66;26.14;97309.81;5060726;28;654;-76
2021/04/02 10:16:46;;;;;;;;;;;;;;;21.57;26.63;97323.88;5061110;28;730;-77
2021/04/02 10:19:12;;;;;;;;;;;;;;;22.17;25.88;97314.34;5060628;28;1890;-75
2021/04/02 10:21:37;;;;;;;;;;;;;;;22.51;25.14;97316.19;5060962;28;942;-76
2021/04/02 10:24:03;;;;;;;;;;;;;;;22.25;25.43;97319.25;5060343;28;839;-76
2021/04/02 10:26:28;;;;;;;;;;;;;;;21.92;25.59;97307.59;5060897;28;789;-75
2021/04/02 10:28:54;;;;;;;;;;;;;;;21.83;26.10;97305.50;5060381;28;599;-76
2021/04/02 10:31:19;;;;;;;;;;;;;;;21.59;26.22;97299.50;5061743;28;1064;-77
2021/04/02 10:33:45;;;;;;;;;;;;;;;21.77;25.90;97303.72;5060379;28;669;-76
2021/04/02 10:36:10;;;;;;;;;;;;;;;21.78;26.04;97293.97;5060556;28;636;-75
2021/04/02 10:38:36;;;;;;;;;;;;;;;21.52;26.50;97287.69;5060130;28;1906;-75
2021/04/02 10:41:01;;;;;;;;;;;;;;;21.60;26.37;97274.81;5060978;28;851;-75
2021/04/02 10:43:27;;;;;;;;;;;;;;;21.77;26.18;97269.75;5059712;28;852;-77
2021/04/02 10:45:52;;;;;;;;;;;;;;;21.82;25.83;97272.75;5061207;28;1013;-77
2021/04/02 10:48:18;;;;;;;;;;;;;;;21.75;26.06;97270.19;5059631;28;686;-76
2021/04/02 10:50:43;;;;;;;;;;;;;;;21.87;25.99;97268.53;5060959;28;634;-76
2021/04/02 10:53:10;;;;;;;;;;;;;;;21.65;26.34;97268.56;5060166;28;599;-76
2021/04/02 10:55:35;;;;;;;;;;;;;;;21.64;26.24;97260.53;5061002;28;966;-76
2021/04/02 10:58:04;;;;;;;;;;;;;;;21.65;26.29;97267.78;5060303;28;877;-76
2021/04/02 11:00:30;;;;;;;;;;;;;;;22.14;25.66;97261.44;5059629;28;1914;-76
2021/04/02 11:02:55;;;;;;;;;;;;;;;22.53;24.70;97262.66;5059548;28;591;-75
2021/04/02 11:05:21;;;;;;;;;;;;;;;22.41;24.97;97260.75;5059841;28;627;-75
2021/04/02 11:07:46;;;;;;;;;;;;;;;22.09;25.32;97251.47;5060570;28;844;-75
2021/04/02 11:10:12;;;;;;;;;;;;;;;21.89;25.77;97248.25;5062689;28;883;-75
2021/04/02 11:12:37;;;;;;;;;;;;;;;21.90;25.51;97244.16;5064385;28;836;-75
2021/04/02 11:15:03;;;;;;;;;;;;;;;21.79;25.96;97247.41;5064246;28;721;-77
2021/04/02 11:17:29;;;;;;;;;;;;;;;21.83;25.73;97246.03;5064948;28;690;-77
2021/04/02 11:19:55;;;;;;;;;;;;;;;21.77;25.96;97242.22;5063681;28;2000;-76
2021/04/02 11:22:29;;;;;;;;;;;;;;;21.70;25.91;97236.81;5063779;28;1072;-75
2021/04/02 11:24:54;;;;;;;;;;;;;;;21.57;25.96;97234.09;5063234;28;956;-76
2021/04/02 11:27:20;;;;;;;;;;;;;;;21.62;25.96;97229.88;5064006;28;1014;-75
2021/04/02 11:29:45;;;;;;;;;;;;;;;21.53;26.33;97226.97;5063395;28;700;-76
2021/04/02 11:32:11;;;;;;;;;;;;;;;21.97;25.79;97227.69;5063505;28;1198;-77
2021/04/02 11:34:37;;;;;;;;;;;;;;;22.50;24.73;97223.91;5063113;28;675;-76
2021/04/02 11:37:02;;;;;;;;;;;;;;;22.46;25.00;97220.44;5063837;28;869;-76
2021/04/02 11:39:28;;;;;;;;;;;;;;;22.06;25.39;97218.41;5062308;28;1905;-77
2021/04/02 11:41:53;;;;;;;;;;;;;;;21.73;25.91;97215.28;5062974;28;967;-77
2021/04/02 11:44:19;;;;;;;;;;;;;;;21.70;26.10;97214.16;5063791;28;810;-76
2021/04/02 11:46:44;;;;;;;;;;;;;;;21.75;25.97;97210.72;5063400;28;611;-75
2021/04/02 11:49:10;;;;;;;;;;;;;;;21.82;25.93;97198.34;5062972;28;635;-75
2021/04/02 11:51:35;;;;;;;;;;;;;;;21.62;26.10;97200.78;5062484;28;999;-75
2021/04/02 11:54:04;;;;;;;;;;;;;;;21.66;26.15;97196.56;5062621;28;934;-74
2021/04/02 11:56:29;;;;;;;;;;;;;;;21.61;26.14;97188.66;5063533;28;876;-75
2021/04/02 11:58:55;;;;;;;;;;;;;;;21.70;25.79;97200.00;5062875;28;1902;-76
2021/04/02 12:01:21;;;;;;;;;;;;;;;21.81;25.78;97191.09;5063729;28;614;-76
2021/04/02 12:03:46;;;;;;;;;;;;;;;22.40;24.97;97196.81;5062445;28;969;-77
2021/04/02 12:06:12;;;;;;;;;;;;;;;22.39;24.99;97183.91;5063479;28;922;-75
2021/04/02 12:08:37;;;;;;;;;;;;;;;22.11;25.34;97169.66;5062722;28;1002;-75
2021/04/02 12:11:03;;;;;;;;;;;;;;;21.83;25.84;97172.38;5064365;28;674;-77
2021/04/02 12:13:28;;;;;;;;;;;;;;;21.90;25.68;97170.50;5061853;28;1151;-77
2021/04/02 12:15:54;;;;;;;;;;;;;;;21.89;25.79;97158.41;5063768;28;767;-76
2021/04/02 12:18:19;;;;;;;;;;;;;;;21.75;25.77;97162.59;5061311;28;912;-76
2021/04/02 12:20:45;;;;;;;;;;;;;;;21.74;25.75;97174.41;5063238;28;1967;-77
2021/04/02 12:23:10;;;;;;;;;;;;;;;21.75;25.96;97164.63;5062103;28;872;-77
2021/04/02 12:25:36;;;;;;;;;;;;;;;21.73;25.87;97165.13;5063284;28;650;-77
2021/04/02 12:28:01;;;;;;;;;;;;;;;21.59;26.21;97162.84;5062002;28;1183;-76
2021/04/02 12:30:27;;;;;;;;;;;;;;;21.67;25.85;97160.53;5061854;28;975;-77
2021/04/02 12:32:52;;;;;;;;;;;;;;;21.72;26.04;97157.88;5062263;28;927;-77
2021/04/02 12:35:18;;;;;;;;;;;;;;;22.30;24.94;97156.31;5062329;28;855;-76
2021/04/02 12:37:43;;;;;;;;;;;;;;;22.55;24.89;97158.09;5062645;28;810;-76
2021/04/02 12:40:10;;;;;;;;;;;;;;;22.28;24.89;97148.31;5062407;28;1967;-76
2021/04/02 12:42:35;;;;;;;;;;;;;;;21.98;25.32;97149.16;5062082;28;891;-76
2021/04/02 12:45:01;;;;;;;;;;;;;;;21.78;25.84;97146.72;5062481;28;648;-75
2021/04/02 12:47:26;;;;;;;;;;;;;;;21.77;25.63;97145.94;5062067;28;1157;-77
2021/04/02 12:49:51;;;;;;;;;;;;;;;21.89;25.74;97147.06;5062260;28;837;-77
2021/04/02 12:52:17;;;;;;;;;;;;;;;21.80;25.83;97139.34;5062836;28;1000;-76
2021/04/02 12:54:43;;;;;;;;;;;;;;;21.67;26.05;97135.06;5062223;28;694;-77
2021/04/02 12:57:08;;;;;;;;;;;;;;;21.77;25.70;97128.97;5062040;28;717;-77
2021/04/02 12:59:34;;;;;;;;;;;;;;;21.62;26.07;97127.97;5061545;28;1973;-77